Time;durP1;ratioP1;P1;durP2;ratioP2;P2;SDS_P1;SDS_P2;PMS_P1;PMS_P2;Temp;Humidity;BMP_temperature;BMP_pressure;BME280_temperature;BME280_humidity;BME280_pressure;Samples;Min_cycle;Max_cycle;Signal;HPM_P1;HPM_P2
2022/04/14 00:02:21;;;;;;;24.70;13.05;;;;;;;;;;5063649;28;20508;-70
2022/04/14 00:04:47;;;;;;;24.83;12.98;;;;;;;;;;5061292;28;20082;-70
2022/04/14 00:07:13;;;;;;;30.38;14.05;;;;;;;;;;5051645;28;20124;-69
2022/04/14 00:09:40;;;;;;;26.40;14.00;;;;;;;;;;5059122;28;20094;-69
2022/04/14 00:12:06;;;;;;;25.98;13.02;;;12.40;99.90;;;;;;5068299;28;20048;-69
2022/04/14 00:14:31;;;;;;;30.40;14.93;;;11.70;99.90;;;;;;5059006;28;20526;-69
2022/04/14 00:16:58;;;;;;;29.13;15.15;;;;;;;;;;5069738;28;20044;-69
2022/04/14 00:19:24;;;;;;;31.30;16.38;;;;;;;;;;5065668;28;20083;-70
2022/04/14 00:21:50;;;;;;;27.50;15.50;;;;;;;;;;5064709;28;20060;-69
2022/04/14 00:24:16;;;;;;;28.27;15.63;;;;;;;;;;5049140;28;20044;-69
2022/04/14 00:26:44;;;;;;;33.00;16.30;;;11.50;99.90;;;;;;5060527;28;20032;-69
2022/04/14 00:29:11;;;;;;;27.70;15.77;;;;;;;;;;5062835;28;20048;-70
2022/04/14 00:31:37;;;;;;;36.90;16.83;;;;;;;;;;5069692;28;20098;-69
2022/04/14 00:34:03;;;;;;;35.10;17.48;;;;;;;;;;5070594;28;20032;-69
2022/04/14 00:36:29;;;;;;;31.10;18.00;;;;;;;;;;5054358;28;20044;-69
2022/04/14 00:38:55;;;;;;;41.00;20.10;;;11.90;99.90;;;;;;5067974;28;20447;-70
2022/04/14 00:41:21;;;;;;;36.38;20.63;;;;;;;;;;5052309;28;20044;-70
2022/04/14 00:43:52;;;;;;;44.88;20.77;;;11.10;99.90;;;;;;5051434;28;20083;-70
2022/04/14 00:46:18;;;;;;;44.35;20.30;;;;;;;;;;5063969;28;20114;-70
2022/04/14 00:48:45;;;;;;;35.70;19.02;;;;;;;;;;5052418;28;20482;-70
2022/04/14 00:51:10;;;;;;;38.92;20.13;;;10.20;99.90;;;;;;5065888;28;20037;-69
2022/04/14 00:53:37;;;;;;;38.50;20.98;;;;;;;;;;5069666;28;20048;-69
2022/04/14 00:56:04;;;;;;;45.13;22.38;;;10.00;99.90;;;;;;5039120;28;20413;-69
2022/04/14 00:58:30;;;;;;;49.08;23.08;;;12.20;99.90;;;;;;5057580;28;20126;-69
2022/04/14 01:00:56;;;;;;;40.95;21.67;;;;;;;;;;5065259;28;20064;-69
2022/04/14 01:03:22;;;;;;;46.25;22.75;;;11.00;99.90;;;;;;5062817;28;20036;-70
2022/04/14 01:05:49;;;;;;;45.33;22.92;;;;;;;;;;5052772;28;20041;-70
2022/04/14 01:08:18;;;;;;;41.20;24.27;;;;;;;;;;5054267;28;20037;-70
2022/04/14 01:10:47;;;;;;;45.75;23.30;;;11.10;99.90;;;;;;5063304;28;20110;-70
2022/04/14 01:13:17;;;;;;;54.10;24.58;;;;;;;;;;5073266;28;20072;-70
2022/04/14 01:15:48;;;;;;;48.63;23.95;;;11.00;99.90;;;;;;5064801;28;20041;-70
2022/04/14 01:18:14;;;;;;;53.17;25.20;;;;;;;;;;5062948;28;20044;-70
2022/04/14 01:20:42;;;;;;;57.60;26.38;;;11.20;99.90;;;;;;5069456;28;20066;-70
2022/04/14 01:23:10;;;;;;;47.75;23.50;;;11.00;99.90;;;;;;5061515;28;20040;-70
2022/04/14 01:25:36;;;;;;;48.70;25.52;;;;;;;;;;5065558;28;20037;-70
2022/04/14 01:28:03;;;;;;;51.28;24.85;;;11.10;99.90;;;;;;5065676;28;20123;-70
2022/04/14 01:30:30;;;;;;;50.63;24.35;;;;;;;;;;5058604;28;20401;-70
2022/04/14 01:32:56;;;;;;;54.83;25.63;;;;;;;;;;5055824;28;20041;-70
2022/04/14 01:35:22;;;;;;;53.90;26.70;;;;;;;;;;5059927;28;20072;-70
2022/04/14 01:37:49;;;;;;;46.95;25.83;;;9.90;99.90;;;;;;5055830;28;20063;-70
2022/04/14 01:40:15;;;;;;;50.83;26.75;;;;;;;;;;5056499;28;20041;-70
2022/04/14 01:42:41;;;;;;;52.03;27.85;;;;;;;;;;5071774;28;20400;-70
2022/04/14 01:45:09;;;;;;;51.78;27.13;;;;;;;;;;5061044;28;20037;-70
2022/04/14 01:47:39;;;;;;;57.63;27.30;;;;;;;;;;5071259;28;20040;-70
2022/04/14 01:50:07;;;;;;;58.28;27.45;;;;;;;;;;5072028;28;20033;-70
2022/04/14 01:52:33;;;;;;;48.30;26.80;;;;;;;;;;5071077;28;20044;-70
2022/04/14 01:54:59;;;;;;;57.40;27.83;;;9.70;99.90;;;;;;5069743;28;20036;-70
2022/04/14 01:57:25;;;;;;;49.95;25.08;;;;;;;;;;5054049;28;20037;-70
2022/04/14 01:59:51;;;;;;;48.47;25.55;;;;;;;;;;5054063;28;20428;-70
2022/04/14 02:02:17;;;;;;;53.00;25.80;;;;;;;;;;5062114;28;20032;-70
2022/04/14 02:04:43;;;;;;;47.83;26.65;;;;;;;;;;5056669;28;20040;-70
2022/04/14 02:07:10;;;;;;;49.22;24.85;;;;;;;;;;5058300;28;20049;-70
2022/04/14 02:09:36;;;;;;;48.10;24.52;;;;;;;;;;5053814;28;20067;-70
2022/04/14 02:12:03;;;;;;;47.80;26.05;;;;;;;;;;5063475;28;20053;-70
2022/04/14 02:14:30;;;;;;;56.30;26.52;;;;;;;;;;5054802;28;20119;-71
2022/04/14 02:16:56;;;;;;;57.22;28.15;;;;;;;;;;5064390;28;20119;-71
2022/04/14 02:19:22;;;;;;;50.38;24.05;;;;;;;;;;5071036;28;20040;-71
2022/04/14 02:21:48;;;;;;;50.97;25.98;;;;;;;;;;5061088;28;20045;-71
2022/04/14 02:24:14;;;;;;;53.45;24.98;;;;;;;;;;5057518;28;20438;-71
2022/04/14 02:26:40;;;;;;;47.95;26.33;;;;;;;;;;5063746;28;21300;-71
2022/04/14 02:29:06;;;;;;;53.80;25.48;;;;;;;;;;5082788;28;20036;-71
2022/04/14 02:31:32;;;;;;;50.03;25.90;;;;;;;;;;5064034;28;20084;-71
2022/04/14 02:33:58;;;;;;;52.95;26.95;;;;;;;;;;5054658;28;20041;-71
2022/04/14 02:36:24;;;;;;;48.15;26.90;;;9.60;99.90;;;;;;5058172;28;20554;-71
2022/04/14 02:38:50;;;;;;;48.70;25.02;;;;;;;;;;5070103;28;20152;-71
2022/04/14 02:41:16;;;;;;;51.75;25.50;;;10.60;99.90;;;;;;5068025;28;20033;-71
2022/04/14 02:43:42;;;;;;;54.83;25.85;;;;;;;;;;5064884;28;20400;-71
2022/04/14 02:46:08;;;;;;;46.67;25.83;;;;;;;;;;5054463;28;20029;-71
2022/04/14 02:48:34;;;;;;;55.97;27.85;;;;;;;;;;5067591;28;20051;-71
2022/04/14 02:51:00;;;;;;;56.42;26.65;;;;;;;;;;5052932;28;20132;-71
2022/04/14 02:53:27;;;;;;;50.20;26.30;;;;;;;;;;5061686;28;20466;-71
2022/04/14 02:55:53;;;;;;;52.05;27.02;;;;;;;;;;5054317;28;20037;-71
2022/04/14 02:58:19;;;;;;;46.63;26.30;;;;;;;;;;5063760;28;20127;-71
2022/04/14 03:00:45;;;;;;;53.85;27.25;;;;;;;;;;5053087;28;20484;-71
2022/04/14 03:03:11;;;;;;;53.88;27.55;;;;;;;;;;5065534;28;20044;-71
2022/04/14 03:05:37;;;;;;;54.47;28.00;;;;;;;;;;5060445;28;20037;-71
2022/04/14 03:08:03;;;;;;;49.70;27.10;;;9.30;99.90;;;;;;5064259;28;20033;-71
2022/04/14 03:10:29;;;;;;;55.88;27.58;;;;;;;;;;5042778;28;20116;-71
2022/04/14 03:12:57;;;;;;;58.33;29.10;;;;;;;;;;5053912;28;20049;-71
2022/04/14 03:15:24;;;;;;;51.55;26.88;;;;;;;;;;5053832;28;20132;-71
2022/04/14 03:17:50;;;;;;;58.35;27.38;;;;;;;;;;5054404;28;20068;-71
2022/04/14 03:20:16;;;;;;;48.97;26.02;;;;;;;;;;5052420;28;20105;-71
2022/04/14 03:22:42;;;;;;;53.17;27.05;;;;;;;;;;5046995;28;20090;-71
2022/04/14 03:25:10;;;;;;;54.85;27.40;;;;;;;;;;5070377;28;20400;-71
2022/04/14 03:27:37;;;;;;;51.00;26.73;;;;;;;;;;5063089;28;20392;-71
2022/04/14 03:30:03;;;;;;;48.45;26.85;;;;;;;;;;5053598;28;20048;-71
2022/04/14 03:32:29;;;;;;;48.92;26.35;;;;;;;;;;5056763;28;20079;-71
2022/04/14 03:34:55;;;;;;;52.47;27.77;;;;;;;;;;5041224;28;20036;-71
2022/04/14 03:37:22;;;;;;;53.88;27.23;;;;;;;;;;5065515;28;20086;-71
2022/04/14 03:39:48;;;;;;;57.42;28.13;;;;;;;;;;5070069;28;20042;-70
2022/04/14 03:42:14;;;;;;;53.97;28.65;;;;;;;;;;5055371;28;20048;-70
2022/04/14 03:44:41;;;;;;;49.28;26.20;;;;;;;;;;5066978;28;20040;-71
2022/04/14 03:47:07;;;;;;;55.22;27.15;;;;;;;;;;5056399;28;20119;-71
2022/04/14 03:49:33;;;;;;;47.65;25.73;;;;;;;;;;5052279;28;20389;-71
2022/04/14 03:51:59;;;;;;;56.10;27.10;;;;;;;;;;5055839;28;20055;-70
2022/04/14 03:54:25;;;;;;;50.13;26.58;;;;;;;;;;5066956;28;20044;-71
2022/04/14 03:56:51;;;;;;;52.45;26.48;;;;;;;;;;5053978;28;20044;-71
2022/04/14 03:59:17;;;;;;;52.88;27.55;;;;;;;;;;5070979;28;20032;-70
2022/04/14 04:01:43;;;;;;;49.50;26.92;;;;;;;;;;5062526;28;20047;-71
2022/04/14 04:04:09;;;;;;;57.13;27.98;;;;;;;;;;5052914;28;20044;-71
2022/04/14 04:06:36;;;;;;;50.50;27.65;;;;;;;;;;5066872;28;20099;-71
2022/04/14 04:09:02;;;;;;;50.38;26.73;;;;;;;;;;5069006;28;20384;-71
2022/04/14 04:11:28;;;;;;;55.10;27.35;;;;;;;;;;5062968;28;20049;-70
2022/04/14 04:13:53;;;;;;;58.35;27.08;;;10.80;99.90;;;;;;5067100;28;20554;-71
2022/04/14 04:16:20;;;;;;;54.22;27.48;;;;;;;;;;5069957;28;20076;-71
2022/04/14 04:18:46;;;;;;;54.90;27.55;;;;;;;;;;5067094;28;20485;-71
2022/04/14 04:21:12;;;;;;;52.10;28.55;;;;;;;;;;5068030;28;20482;-71
2022/04/14 04:23:37;;;;;;;53.10;27.33;;;10.70;99.90;;;;;;5057681;28;20266;-71
2022/04/14 04:26:03;;;;;;;52.40;25.67;;;;;;;;;;5051504;28;20037;-71
2022/04/14 04:28:32;;;;;;;54.03;27.55;;;;;;;;;;5075102;28;20083;-71
2022/04/14 04:30:58;;;;;;;52.72;27.00;;;;;;;;;;5051984;28;20083;-71
2022/04/14 04:33:24;;;;;;;55.55;27.35;;;;;;;;;;5056259;28;20045;-71
2022/04/14 04:35:51;;;;;;;47.10;26.52;;;;;;;;;;5061325;28;20127;-71
2022/04/14 04:38:17;;;;;;;51.33;28.10;;;;;;;;;;5058692;28;20098;-71
2022/04/14 04:40:43;;;;;;;56.67;28.55;;;;;;;;;;5052562;28;20063;-71
2022/04/14 04:43:09;;;;;;;54.40;29.23;;;;;;;;;;5065485;28;20087;-70
2022/04/14 04:45:36;;;;;;;53.47;28.58;;;9.60;99.90;;;;;;5058688;28;20118;-71
2022/04/14 04:48:04;;;;;;;53.72;29.13;;;;;;;;;;5059842;28;20032;-71
2022/04/14 04:50:30;;;;;;;49.33;27.25;;;;;;;;;;5056501;28;20079;-71
2022/04/14 04:52:56;;;;;;;53.00;27.65;;;;;;;;;;5065120;28;20439;-71
2022/04/14 04:55:22;;;;;;;54.10;28.85;;;;;;;;;;5069498;28;20074;-72
2022/04/14 04:57:48;;;;;;;57.28;27.52;;;;;;;;;;5056366;28;20041;-71
2022/04/14 05:00:15;;;;;;;53.55;27.73;;;;;;;;;;5054364;28;20040;-72
2022/04/14 05:02:41;;;;;;;54.40;27.55;;;;;;;;;;5064831;28;20040;-72
2022/04/14 05:05:07;;;;;;;51.65;28.95;;;;;;;;;;5067684;28;20076;-73
2022/04/14 05:07:33;;;;;;;51.55;28.65;;;;;;;;;;5059997;28;20354;-73
2022/04/14 05:09:59;;;;;;;53.67;30.27;;;;;;;;;;5070219;28;20033;-73
2022/04/14 05:12:25;;;;;;;56.15;28.92;;;;;;;;;;5056572;28;20056;-73
2022/04/14 05:14:51;;;;;;;50.88;27.95;;;;;;;;;;5056202;28;20417;-73
2022/04/14 05:17:18;;;;;;;49.88;27.50;;;;;;;;;;5056145;28;20111;-73
2022/04/14 05:19:44;;;;;;;50.35;29.02;;;;;;;;;;5057462;28;20056;-73
2022/04/14 05:22:10;;;;;;;50.28;28.30;;;;;;;;;;5055923;28;20037;-73
2022/04/14 05:24:36;;;;;;;46.90;27.15;;;;;;;;;;5066361;28;20036;-73
2022/04/14 05:27:02;;;;;;;51.33;28.63;;;;;;;;;;5048245;28;20044;-73
2022/04/14 05:29:30;;;;;;;56.92;28.92;;;;;;;;;;5068262;28;20444;-73
2022/04/14 05:31:56;;;;;;;50.80;28.70;;;;;;;;;;5069025;28;20517;-73
2022/04/14 05:34:23;;;;;;;56.10;26.50;;;;;;;;;;5047818;28;20044;-70
2022/04/14 05:36:49;;;;;;;46.03;26.92;;;;;;;;;;5068609;28;20426;-70
2022/04/14 05:39:16;;;;;;;47.05;27.13;;;;;;;;;;5064787;28;20116;-70
2022/04/14 05:41:42;;;;;;;47.47;26.75;;;;;;;;;;5054254;28;20492;-70
2022/04/14 05:44:08;;;;;;;50.60;26.15;;;;;;;;;;5060242;28;20040;-70
2022/04/14 05:46:34;;;;;;;52.50;26.08;;;;;;;;;;5071000;28;20040;-70
2022/04/14 05:49:00;;;;;;;47.17;25.88;;;;;;;;;;5044448;28;20094;-70
2022/04/14 05:51:26;;;;;;;46.13;26.17;;;;;;;;;;5061839;28;20083;-70
2022/04/14 05:53:53;;;;;;;46.83;26.65;;;10.70;99.90;;;;;;5068688;28;20041;-70
2022/04/14 05:56:19;;;;;;;48.20;25.92;;;10.10;99.90;;;;;;5054097;28;20087;-70
2022/04/14 05:58:46;;;;;;;50.13;26.80;;;10.00;99.90;;;;;;5056347;28;20123;-70
2022/04/14 06:01:12;;;;;;;50.67;26.17;;;;;;;;;;5068516;28;20043;-70
2022/04/14 06:03:38;;;;;;;43.67;26.58;;;;;;;;;;5054432;28;20389;-69
2022/04/14 06:06:05;;;;;;;52.67;26.38;;;10.90;99.90;;;;;;5062047;28;20025;-70
2022/04/14 06:08:31;;;;;;;48.35;23.92;;;;;;;;;;5059763;28;20060;-70
2022/04/14 06:11:00;;;;;;;54.28;25.23;;;;;;;;;;5073253;28;20060;-72
2022/04/14 06:13:26;;;;;;;52.42;24.80;;;;;;;;;;5053507;28;20040;-70
2022/04/14 06:15:52;;;;;;;53.70;25.23;;;;;;;;;;5068113;28;20047;-68
2022/04/14 06:18:18;;;;;;;43.60;25.27;;;;;;;;;;5071370;28;20199;-70
2022/04/14 06:20:47;;;;;;;43.95;23.95;;;;;;;;;;5054932;28;20132;-70
2022/04/14 06:23:16;;;;;;;47.75;22.98;;;;;;;;;;5058166;28;20052;-71
2022/04/14 06:25:45;;;;;;;51.25;25.25;;;;;;;;;;5057193;28;20362;-70
2022/04/14 06:28:11;;;;;;;48.05;23.50;;;;;;;;;;5051963;28;20044;-70
2022/04/14 06:30:38;;;;;;;44.88;24.15;;;;;;;;;;5063690;28;20461;-70
2022/04/14 06:33:05;;;;;;;43.53;23.77;;;;;;;;;;5069054;28;20550;-70
2022/04/14 06:35:32;;;;;;;44.88;23.90;;;;;;;;;;5056495;28;20469;-70
2022/04/14 06:37:58;;;;;;;39.58;23.10;;;;;;;;;;5077954;28;20083;-70
2022/04/14 06:40:24;;;;;;;43.72;24.17;;;;;;;;;;5061240;28;20243;-70
2022/04/14 06:42:51;;;;;;;44.22;24.45;;;;;;;;;;5070828;28;20047;-70
2022/04/14 06:45:17;;;;;;;49.08;23.30;;;10.70;99.90;;;;;;5061083;28;20389;-70
2022/04/14 06:47:43;;;;;;;42.60;23.65;;;;;;;;;;5054126;28;20028;-70
2022/04/14 06:50:10;;;;;;;49.88;23.55;;;;;;;;;;5066111;28;20486;-70
2022/04/14 06:52:38;;;;;;;50.20;24.20;;;10.80;99.90;;;;;;5068382;28;20055;-70
2022/04/14 06:55:05;;;;;;;47.40;23.10;;;11.70;99.90;;;;;;5059927;28;20052;-70
2022/04/14 06:57:31;;;;;;;41.58;23.45;;;;;;;;;;5070532;28;20044;-75
2022/04/14 06:59:57;;;;;;;51.58;23.65;;;;;;;;;;5066839;28;20040;-70
2022/04/14 07:02:23;;;;;;;43.92;22.27;;;;;;;;;;5070674;28;20047;-70
2022/04/14 07:04:49;;;;;;;50.97;23.92;;;;;;;;;;5064734;28;20040;-70
2022/04/14 07:07:15;;;;;;;43.60;23.35;;;11.70;99.90;;;;;;5070525;28;20037;-71
2022/04/14 07:09:41;;;;;;;44.88;22.80;;;;;;;;;;5062234;28;20040;-71
2022/04/14 07:12:08;;;;;;;44.65;23.52;;;;;;;;;;5066407;28;20048;-70
2022/04/14 07:14:34;;;;;;;44.40;23.10;;;;;;;;;;5052853;28;20067;-70
2022/04/14 07:17:00;;;;;;;42.20;22.13;;;;;;;;;;5052799;28;20098;-70
2022/04/14 07:19:27;;;;;;;45.33;22.38;;;;;;;;;;5069414;28;20412;-71
2022/04/14 07:21:53;;;;;;;42.03;21.75;;;;;;;;;;5052332;28;20048;-71
2022/04/14 07:24:19;;;;;;;47.20;22.02;;;;;;;;;;5052352;28;20128;-71
2022/04/14 07:26:45;;;;;;;50.13;23.05;;;;;;;;;;5051998;28;20500;-71
2022/04/14 07:29:12;;;;;;;41.13;21.73;;;;;;;;;;5052306;28;20044;-71
2022/04/14 07:31:39;;;;;;;41.83;21.83;;;;;;;;;;5052493;28;20052;-71
2022/04/14 07:34:06;;;;;;;42.92;21.95;;;;;;;;;;5052236;28;20060;-71
2022/04/14 07:36:32;;;;;;;40.20;21.42;;;;;;;;;;5052528;28;20049;-71
2022/04/14 07:38:59;;;;;;;41.90;22.40;;;;;;;;;;5052578;28;20371;-71
2022/04/14 07:41:26;;;;;;;41.03;21.60;;;;;;;;;;5052156;28;20055;-71
2022/04/14 07:43:53;;;;;;;46.60;21.35;;;;;;;;;;5052124;28;20044;-71
2022/04/14 07:46:19;;;;;;;40.17;20.73;;;;;;;;;;5053450;28;20425;-71
2022/04/14 07:48:45;;;;;;;37.95;20.33;;;;;;;;;;5052258;28;20060;-71
2022/04/14 07:51:11;;;;;;;43.97;21.33;;;;;;;;;;5051996;28;20037;-71
2022/04/14 07:53:38;;;;;;;36.35;19.15;;;;;;;;;;5052092;28;20485;-71
2022/04/14 07:56:05;;;;;;;38.58;19.45;;;;;;;;;;5051758;28;20044;-71
2022/04/14 07:58:32;;;;;;;34.63;18.63;;;;;;;;;;5051766;28;20040;-70
2022/04/14 08:00:58;;;;;;;36.92;19.92;;;;;;;;;;5051814;28;20508;-70
2022/04/14 08:03:24;;;;;;;32.88;17.85;;;;;;;;;;5051678;28;20045;-70
2022/04/14 08:05:50;;;;;;;35.50;18.80;;;;;;;;;;5051827;28;20041;-70
2022/04/14 08:08:18;;;;;;;29.77;17.25;;;12.50;99.90;;;;;;5051786;28;20079;-70
2022/04/14 08:10:46;;;;;;;34.97;18.00;;;12.50;99.90;;;;;;5052838;28;20554;-70
2022/04/14 08:13:14;;;;;;;29.60;17.05;;;12.60;99.90;;;;;;5051575;28;20053;-70
2022/04/14 08:15:40;;;;;;;34.97;18.13;;;;;;;;;;5051662;28;20051;-70
2022/04/14 08:18:07;;;;;;;32.47;17.05;;;;;;;;;;5051388;28;20123;-71
2022/04/14 08:20:39;;;;;;;33.90;18.58;;;;;;;;;;5051553;28;20051;-71
2022/04/14 08:23:06;;;;;;;37.83;16.48;;;;;;;;;;5051477;28;20142;-70
2022/04/14 08:25:34;;;;;;;34.75;17.08;;;;;;;;;;5051377;28;20134;-70
2022/04/14 08:28:01;;;;;;;29.30;16.33;;;12.90;99.90;;;;;;5051453;28;20037;-70
2022/04/14 08:30:29;;;;;;;24.45;13.05;;;12.90;99.90;;;;;;5052895;28;20037;-70
2022/04/14 08:32:56;;;;;;;29.85;15.48;;;;;;;;;;5051704;28;20033;-70
2022/04/14 08:35:22;;;;;;;32.78;16.50;;;13.90;99.90;;;;;;5051629;28;20040;-70
2022/04/14 08:37:48;;;;;;;32.75;16.17;;;12.40;99.90;;;;;;5068275;28;20040;-70
2022/04/14 08:40:16;;;;;;;30.25;16.02;;;13.50;99.90;;;;;;5051437;28;20124;-70
2022/04/14 08:42:51;;;;;;;30.60;16.58;;;13.70;99.90;;;;;;5051198;28;20041;-70
2022/04/14 08:45:21;;;;;;;33.85;15.98;;;13.70;99.90;;;;;;5051346;28;20041;-70
2022/04/14 08:47:49;;;;;;;28.50;16.20;;;13.70;99.90;;;;;;5068639;28;20049;-70
2022/04/14 08:50:16;;;;;;;30.38;15.57;;;;;;;;;;5052568;28;20084;-70
2022/04/14 08:52:42;;;;;;;27.40;14.88;;;;;;;;;;5051355;28;20052;-70
2022/04/14 08:55:11;;;;;;;25.88;13.25;;;13.80;99.90;;;;;;5084906;28;20041;-70
2022/04/14 08:57:37;;;;;;;22.23;12.13;;;;;;;;;;5051327;28;20102;-70
2022/04/14 09:00:06;;;;;;;26.92;12.35;;;14.20;99.90;;;;;;5051478;28;20048;-70
2022/04/14 09:02:34;;;;;;;19.85;10.25;;;13.90;99.90;;;;;;5084600;28;20508;-70
2022/04/14 09:05:00;;;;;;;25.90;10.68;;;;;;;;;;5051500;28;20157;-70
2022/04/14 09:07:27;;;;;;;21.77;10.73;;;;;;;;;;5051292;28;20041;-70
2022/04/14 09:09:53;;;;;;;20.02;10.45;;;;;;;;;;5051325;28;20091;-70
2022/04/14 09:12:19;;;;;;;18.75;9.18;;;;;;;;;;5067605;28;20045;-70
2022/04/14 09:14:49;;;;;;;15.10;8.93;;;14.50;99.90;;;;;;5051237;28;20041;-70
2022/04/14 09:17:15;;;;;;;16.02;8.30;;;;;;;;;;5052351;28;20029;-77
2022/04/14 09:19:44;;;;;;;17.02;6.75;;;;;;;;;;5047052;28;20103;-70
2022/04/14 09:22:14;;;;;;;13.10;6.47;;;14.70;99.90;;;;;;5051099;28;20044;-70
2022/04/14 09:24:43;;;;;;;13.70;6.68;;;;;;;;;;5084973;28;20079;-70
2022/04/14 09:27:21;;;;;;;13.15;6.30;;;14.90;99.90;;;;;;5061342;28;20036;-70
2022/04/14 09:29:48;;;;;;;16.40;6.95;;;15.40;99.90;;;;;;5054272;28;20052;-70
2022/04/14 09:32:33;;;;;;;13.35;6.72;;;14.80;99.90;;;;;;5055702;28;20047;-70
2022/04/14 09:35:14;;;;;;;13.80;7.00;;;15.10;99.90;;;;;;5061430;28;20036;-71
2022/04/14 09:37:41;;;;;;;16.90;5.68;;;;;;;;;;5070368;28;20444;-70
2022/04/14 09:40:08;;;;;;;9.65;5.28;;;15.00;99.10;;;;;;5070555;28;20052;-70
2022/04/14 09:42:43;;;;;;;13.00;7.03;;;14.80;98.00;;;;;;5068794;28;20052;-70
2022/04/14 09:45:20;;;;;;;19.02;8.13;;;15.00;98.10;;;;;;5040201;28;20103;-71
2022/04/14 09:47:47;;;;;;;15.48;5.95;;;15.10;98.30;;;;;;5072970;28;20040;-71
2022/04/14 09:50:31;;;;;;;14.88;7.50;;;15.50;99.90;;;;;;5058177;28;20048;-71
2022/04/14 09:53:09;;;;;;;14.95;7.78;;;15.10;99.10;;;;;;5065807;28;20044;-70
2022/04/14 09:55:40;;;;;;;19.75;8.63;;;15.00;99.00;;;;;;5044587;28;20091;-71
2022/04/14 09:58:06;;;;;;;14.90;7.60;;;;;;;;;;5061798;28;20358;-71
2022/04/14 10:00:42;;;;;;;16.98;8.77;;;14.10;99.90;;;;;;5062509;28;20040;-70
2022/04/14 10:03:11;;;;;;;15.25;8.43;;;15.10;99.00;;;;;;5058530;28;20048;-70
2022/04/14 10:05:38;;;;;;;18.55;9.90;;;;;;;;;;5059371;28;20037;-70
2022/04/14 10:08:08;;;;;;;21.83;8.70;;;;;;;;;;5064147;28;20067;-71
2022/04/14 10:10:41;;;;;;;19.10;8.45;;;15.20;98.60;;;;;;5053585;28;20076;-70
2022/04/14 10:13:09;;;;;;;17.50;8.20;;;15.00;97.90;;;;;;5068909;28;20067;-70
2022/04/14 10:15:55;;;;;;;20.10;9.05;;;15.00;98.60;;;;;;5071684;28;20080;-70
2022/04/14 10:18:20;;;;;;;16.25;7.70;;;14.30;99.90;;;;;;5070598;28;20040;-70
2022/04/14 10:20:47;;;;;;;18.38;7.78;;;15.40;98.20;;;;;;5071782;28;20047;-70
2022/04/14 10:23:15;;;;;;;15.70;7.22;;;15.40;98.00;;;;;;5080828;28;20098;-70
2022/04/14 10:25:42;;;;;;;19.42;7.25;;;;;;;;;;5071562;28;20116;-71
2022/04/14 10:28:16;;;;;;;14.35;6.55;;;15.30;99.90;;;;;;5058724;28;20051;-71
2022/04/14 10:30:52;;;;;;;15.88;7.03;;;15.30;97.80;;;;;;5073889;28;20048;-71
2022/04/14 10:33:20;;;;;;;16.77;7.80;;;16.20;99.90;;;;;;5070132;28;20115;-70
2022/04/14 10:35:46;;;;;;;22.58;8.88;;;;;;;;;;5055482;28;20039;-69
2022/04/14 10:38:24;;;;;;;17.85;7.80;;;15.60;97.60;;;;;;5061879;28;20476;-70
2022/04/14 10:40:59;;;;;;;19.73;9.32;;;15.60;97.30;;;;;;5074159;28;20040;-75
2022/04/14 10:43:25;;;;;;;22.17;9.48;;;15.50;97.20;;;;;;5056530;28;20045;-72
2022/04/14 10:45:53;;;;;;;20.02;9.10;;;15.60;97.40;;;;;;5065746;28;20048;-73
2022/04/14 10:48:36;;;;;;;16.80;8.15;;;16.20;96.70;;;;;;5070448;28;20032;-73
2022/04/14 10:51:29;;;;;;;19.90;9.38;;;15.90;97.70;;;;;;5058704;28;20059;-70
2022/04/14 10:54:00;;;;;;;18.65;8.05;;;15.00;99.90;;;;;;5071013;28;20036;-71
2022/04/14 10:56:38;;;;;;;18.48;7.68;;;15.00;97.80;;;;;;5066720;28;20056;-70
2022/04/14 10:59:04;;;;;;;12.57;7.13;;;;;;;;;;5052827;28;20119;-70
2022/04/14 11:01:48;;;;;;;12.13;6.00;;;15.70;96.40;;;;;;5069390;28;20174;-70
2022/04/14 11:04:27;;;;;;;14.80;6.30;;;15.60;99.30;;;;;;5066959;28;20037;-71
2022/04/14 11:06:54;;;;;;;13.68;6.50;;;16.20;96.10;;;;;;5070294;28;20098;-71
2022/04/14 11:09:48;;;;;;;16.40;6.72;;;16.20;96.00;;;;;;5072259;28;20044;-71
2022/04/14 11:12:50;;;;;;;14.45;6.57;;;15.90;94.90;;;;;;5070057;28;20143;-71
2022/04/14 11:15:30;;;;;;;13.57;5.77;;;16.70;99.40;;;;;;5055744;28;20047;-71
2022/04/14 11:18:03;;;;;;;12.35;5.60;;;15.40;97.80;;;;;;5072607;28;20036;-71
2022/04/14 11:20:34;;;;;;;9.75;5.22;;;15.00;98.70;;;;;;5072559;28;20044;-71
2022/04/14 11:23:17;;;;;;;15.50;6.18;;;16.20;94.90;;;;;;5072478;28;20078;-71
2022/04/14 11:25:44;;;;;;;14.65;5.60;;;;;;;;;;5073750;28;20041;-71
2022/04/14 11:28:30;;;;;;;12.30;6.53;;;16.10;94.80;;;;;;5072464;28;20037;-71
2022/04/14 11:30:57;;;;;;;13.85;6.03;;;16.80;99.20;;;;;;5072691;28;20044;-71
2022/04/14 11:33:32;;;;;;;14.23;6.28;;;16.00;94.80;;;;;;5073711;28;20370;-71
2022/04/14 11:36:12;;;;;;;16.35;6.60;;;15.90;94.60;;;;;;5073489;28;20037;-71
2022/04/14 11:38:59;;;;;;;11.55;6.43;;;15.10;98.60;;;;;;5072556;28;20109;-71
2022/04/14 11:41:46;;;;;;;12.82;6.10;;;16.50;96.30;;;;;;5071963;28;20071;-71
2022/04/14 11:44:16;;;;;;;12.15;6.03;;;15.00;98.50;;;;;;5072248;28;20044;-70
2022/04/14 11:46:45;;;;;;;16.40;6.75;;;15.60;98.80;;;;;;5055470;28;20119;-70
2022/04/14 11:49:14;;;;;;;16.80;7.80;;;16.40;95.80;;;;;;5072062;28;20041;-71
2022/04/14 11:51:40;;;;;;;16.23;7.97;;;;;;;;;;5071587;28;20044;-70
2022/04/14 11:54:06;;;;;;;17.17;8.25;;;17.30;99.00;;;;;;5071991;28;20040;-70
2022/04/14 11:56:32;;;;;;;21.30;10.23;;;17.40;98.60;;;;;;5071996;28;20048;-71
2022/04/14 11:58:57;;;;;;;18.10;7.45;;;15.40;97.40;;;;;;5073377;28;20040;-70
2022/04/14 12:01:23;;;;;;;19.75;8.10;;;16.50;98.50;;;;;;5071996;28;20408;-69
2022/04/14 12:03:49;;;;;;;17.75;8.40;;;;;;;;;;5071924;28;20075;-70
2022/04/14 12:06:16;;;;;;;16.58;7.55;;;16.80;95.30;;;;;;5055481;28;20123;-70
2022/04/14 12:08:52;;;;;;;18.63;7.15;;;16.60;95.50;;;;;;5073242;28;20032;-70
2022/04/14 12:11:20;;;;;;;16.45;8.23;;;;;;;;;;5072027;28;20079;-70
2022/04/14 12:13:46;;;;;;;14.63;7.35;;;;;;;;;;5055165;28;20041;-70
2022/04/14 12:16:13;;;;;;;13.85;5.90;;;;;;;;;;5071689;28;20145;-70
2022/04/14 12:18:40;;;;;;;14.65;6.60;;;16.60;94.50;;;;;;5071796;28;20097;-70
2022/04/14 12:21:07;;;;;;;15.25;6.03;;;;;;;;;;5071618;28;20044;-70
2022/04/14 12:23:34;;;;;;;15.10;6.03;;;16.70;94.70;;;;;;5071834;28;20082;-71
2022/04/14 12:26:02;;;;;;;14.52;6.90;;;16.60;94.60;;;;;;5071973;28;20186;-70
2022/04/14 12:28:28;;;;;;;16.35;6.65;;;;;;;;;;5071651;28;20044;-71
2022/04/14 12:30:54;;;;;;;14.55;6.97;;;;;;;;;;5055105;28;20036;-71
2022/04/14 12:33:27;;;;;;;19.27;6.20;;;15.50;97.60;;;;;;5072003;28;20044;-71
2022/04/14 12:36:08;;;;;;;15.43;6.40;;;17.10;98.00;;;;;;5071651;28;20036;-71
2022/04/14 12:38:50;;;;;;;17.17;6.57;;;15.60;96.90;;;;;;5071617;28;20043;-71
2022/04/14 12:41:17;;;;;;;17.50;6.60;;;17.40;98.00;;;;;;5071582;28;20040;-71
2022/04/14 12:43:48;;;;;;;18.73;6.50;;;16.70;94.10;;;;;;5071518;28;20516;-71
2022/04/14 12:46:21;;;;;;;17.73;6.22;;;16.70;97.80;;;;;;5071651;28;20044;-70
2022/04/14 12:48:48;;;;;;;14.32;6.60;;;;;;;;;;5071875;28;20040;-71
2022/04/14 12:51:13;;;;;;;16.60;5.82;;;17.20;98.00;;;;;;5071712;28;20048;-70
2022/04/14 12:53:39;;;;;;;13.60;5.80;;;17.00;97.70;;;;;;5071589;28;20071;-70
2022/04/14 12:56:11;;;;;;;17.63;6.28;;;17.30;98.00;;;;;;5072704;28;20044;-70
2022/04/14 12:58:37;;;;;;;18.08;6.60;;;;;;;;;;5071789;28;20036;-70
2022/04/14 13:01:13;;;;;;;14.20;6.35;;;17.10;97.70;;;;;;5071557;28;20040;-70
2022/04/14 13:03:51;;;;;;;18.55;6.82;;;17.20;98.20;;;;;;5073677;28;20388;-70
2022/04/14 13:06:23;;;;;;;18.45;6.95;;;16.10;98.10;;;;;;5075164;28;20071;-70
2022/04/14 13:08:49;;;;;;;18.13;6.20;;;;;;;;;;5075425;28;20048;-70
2022/04/14 13:11:45;;;;;;;14.30;5.72;;;16.30;93.80;;;;;;5076246;28;20136;-70
2022/04/14 13:14:16;;;;;;;16.25;5.50;;;16.40;98.20;;;;;;5075062;28;20063;-70
2022/04/14 13:16:44;;;;;;;18.33;6.60;;;16.10;94.90;;;;;;5074931;28;20037;-70
2022/04/14 13:19:10;;;;;;;17.35;6.10;;;16.60;98.40;;;;;;5058155;28;20044;-70
2022/04/14 13:21:36;;;;;;;16.92;7.13;;;15.60;98.50;;;;;;5075062;28;20049;-70
2022/04/14 13:24:02;;;;;;;23.25;7.70;;;16.40;98.70;;;;;;5076252;28;20040;-70
2022/04/14 13:26:28;;;;;;;17.15;7.40;;;16.70;99.00;;;;;;5075054;28;20050;-70
2022/04/14 13:28:53;;;;;;;17.58;7.10;;;15.10;98.70;;;;;;5076058;28;20479;-70
2022/04/14 13:31:19;;;;;;;16.83;7.00;;;;;;;;;;5075742;28;20032;-70
2022/04/14 13:33:45;;;;;;;18.00;7.53;;;;;;;;;;5074697;28;20040;-70
2022/04/14 13:36:11;;;;;;;17.77;7.03;;;14.80;98.90;;;;;;5058139;28;20044;-70
2022/04/14 13:38:37;;;;;;;18.90;7.97;;;;;;;;;;5074353;28;20483;-70
2022/04/14 13:41:03;;;;;;;14.70;8.07;;;;;;;;;;5057876;28;20044;-70
2022/04/14 13:43:29;;;;;;;19.38;7.82;;;15.80;95.90;;;;;;5074473;28;20036;-70